Time,TemperatureF,DewpointF,PressureIn,WindDirection,WindDirectionDegrees,WindSpeedMPH,WindSpeedGustMPH,Humidity,HourlyPrecipIn,Conditions,Clouds,dailyrainin,SoftwareType,DateUTC
2013-05-08 00:00:00,57.4,52.9,29.98,NE,53,0.0,2.0,85,0.00,,,0.00,Wunderground v.1.15,2013-05-08 05:00:00,
2013-05-08 00:06:00,57.2,52.7,29.98,NNE,27,0.0,2.0,85,0.00,,,0.00,Wunderground v.1.15,2013-05-08 05:06:00,
2013-05-08 00:11:00,57.3,52.8,29.97,NE,46,0.0,2.0,85,0.00,,,0.00,Wunderground v.1.15,2013-05-08 05:11:00,
2013-05-08 00:16:00,57.7,53.2,29.97,NNE,15,0.0,2.0,85,0.00,,,0.00,Wunderground v.1.15,2013-05-08 05:16:00,
2013-05-08 00:21:00,57.8,53.3,29.97,NE,44,0.0,2.0,85,0.00,,,0.00,Wunderground v.1.15,2013-05-08 05:21:00,
2013-05-08 00:27:00,57.7,53.2,29.97,NNW,333,0.0,2.0,85,0.00,,,0.00,Wunderground v.1.15,2013-05-08 05:27:00,
2013-05-08 00:32:00,57.7,53.2,29.96,NNE,17,0.0,2.0,85,0.00,,,0.00,Wunderground v.1.15,2013-05-08 05:32:00,
2013-05-08 00:37:00,57.2,53.0,29.96,North,351,1.0,2.0,86,0.00,,,0.00,Wunderground v.1.15,2013-05-08 05:37:00,
2013-05-08 00:43:00,56.3,52.8,29.96,NNW,348,0.0,2.0,88,0.00,,,0.00,Wunderground v.1.15,2013-05-08 05:43:00,
2013-05-08 00:48:00,55.7,52.2,29.96,NNW,348,0.0,2.0,88,0.00,,,0.00,Wunderground v.1.15,2013-05-08 05:48:00,
2013-05-08 00:53:00,55.3,52.4,29.96,NNW,347,0.0,2.0,90,0.00,,,0.00,Wunderground v.1.15,2013-05-08 05:53:00,
2013-05-08 09:47:00,60.9,57.3,30.04,ENE,78,1.0,2.0,88,0.00,,,0.00,Wunderground v.1.15,2013-05-08 14:47:00,
2013-05-08 09:52:00,60.8,57.2,30.04,SSW,212,1.0,2.0,88,0.00,,,0.00,Wunderground v.1.15,2013-05-08 14:52:00,
2013-05-08 09:57:00,60.9,57.0,30.04,ENE,74,1.0,2.0,87,0.00,,,0.00,Wunderground v.1.15,2013-05-08 14:57:00,
2013-05-08 10:02:00,61.0,57.4,30.04,NNE,22,1.0,2.0,88,0.00,,,0.00,Wunderground v.1.15,2013-05-08 15:02:00,
2013-05-08 10:08:00,61.3,57.7,30.04,NNE,15,1.0,2.0,88,0.00,,,0.00,Wunderground v.1.15,2013-05-08 15:08:00,
2013-05-08 10:13:00,61.2,57.3,30.04,ENE,58,1.0,3.0,87,0.00,,,0.00,Wunderground v.1.15,2013-05-08 15:13:00,
2013-05-08 10:18:00,61.7,58.4,30.04,NNW,339,1.0,3.0,89,0.00,,,0.00,Wunderground v.1.15,2013-05-08 15:18:00,
2013-05-08 10:24:00,62.6,58.4,30.04,North,9,1.0,2.0,86,0.00,,,0.00,Wunderground v.1.15,2013-05-08 15:24:00,
2013-05-08 10:29:00,63.0,58.4,30.03,NNW,347,2.0,3.0,85,0.00,,,0.00,Wunderground v.1.15,2013-05-08 15:29:00,
2013-05-08 10:34:00,63.8,59.2,30.03,North,352,1.0,2.0,85,0.00,,,0.00,Wunderground v.1.15,2013-05-08 15:34:00,
2013-05-08 10:39:00,64.7,59.8,30.03,WNW,302,1.0,2.0,84,0.00,,,0.00,Wunderground v.1.15,2013-05-08 15:39:00,
2013-05-08 10:45:00,65.7,59.7,30.03,WNW,302,1.0,2.0,81,0.00,,,0.00,Wunderground v.1.15,2013-05-08 15:45:00,
2013-05-08 10:50:00,66.6,60.6,30.03,NE,34,1.0,2.0,81,0.00,,,0.00,Wunderground v.1.15,2013-05-08 15:50:00,
2013-05-08 10:55:00,67.5,60.8,30.03,WNW,297,1.0,4.0,79,0.00,,,0.00,Wunderground v.1.15,2013-05-08 15:55:00,
2013-05-08 11:01:00,67.8,60.7,30.03,ENE,73,1.0,4.0,78,0.00,,,0.00,Wunderground v.1.15,2013-05-08 16:01:00,
2013-05-08 11:06:00,67.7,60.6,30.03,NNE,15,1.0,4.0,78,0.00,,,0.00,Wunderground v.1.15,2013-05-08 16:06:00,
2013-05-08 11:11:00,67.6,60.1,30.03,NE,46,1.0,2.0,77,0.00,,,0.00,Wunderground v.1.15,2013-05-08 16:11:00,
2013-05-08 11:17:00,67.3,60.2,30.03,NNW,347,1.0,3.0,78,0.00,,,0.00,Wunderground v.1.15,2013-05-08 16:17:00,
2013-05-08 11:22:00,67.7,60.6,30.03,North,3,1.0,2.0,78,0.00,,,0.00,Wunderground v.1.15,2013-05-08 16:22:00,
2013-05-08 11:27:00,68.6,60.7,30.02,WNW,297,1.0,4.0,76,0.00,,,0.00,Wunderground v.1.15,2013-05-08 16:27:00,
2013-05-08 11:33:00,69.9,61.2,30.02,WNW,303,2.0,3.0,74,0.00,,,0.00,Wunderground v.1.15,2013-05-08 16:33:00,
2013-05-08 11:38:00,70.3,61.2,30.02,NE,45,2.0,3.0,73,0.00,,,0.00,Wunderground v.1.15,2013-05-08 16:38:00,
2013-05-08 11:43:00,70.4,60.9,30.02,North,352,2.0,2.0,72,0.00,,,0.00,Wunderground v.1.15,2013-05-08 16:43:00,
2013-05-08 11:48:00,70.4,60.9,30.02,North,349,1.0,2.0,72,0.00,,,0.00,Wunderground v.1.15,2013-05-08 16:48:00,
2013-05-08 11:54:00,70.4,61.3,30.02,WSW,246,1.0,2.0,73,0.00,,,0.00,Wunderground v.1.15,2013-05-08 16:54:00,
2013-05-08 11:59:00,71.4,61.9,30.01,WNW,286,1.0,3.0,72,0.00,,,0.00,Wunderground v.1.15,2013-05-08 16:59:00,
2013-05-08 12:04:00,72.2,61.0,30.01,NW,306,2.0,7.0,68,0.00,,,0.00,Wunderground v.1.15,2013-05-08 17:04:00,
2013-05-08 12:10:00,71.6,60.5,30.01,NNW,344,2.0,2.0,68,0.00,,,0.00,Wunderground v.1.15,2013-05-08 17:10:00,
2013-05-08 12:15:00,71.5,61.2,30.01,NNW,344,1.0,3.0,70,0.00,,,0.00,Wunderground v.1.15,2013-05-08 17:15:00,
2013-05-08 12:20:00,71.1,60.0,30.01,NNW,345,2.0,2.0,68,0.00,,,0.00,Wunderground v.1.15,2013-05-08 17:20:00,
2013-05-08 12:25:00,71.4,61.5,30.01,NW,324,2.0,2.0,71,0.00,,,0.00,Wunderground v.1.15,2013-05-08 17:25:00,
2013-05-08 12:31:00,71.6,60.9,30.01,WNW,292,2.0,2.0,69,0.00,,,0.00,Wunderground v.1.15,2013-05-08 17:31:00,
2013-05-08 12:36:00,71.5,60.8,30.00,NNW,341,2.0,2.0,69,0.00,,,0.00,Wunderground v.1.15,2013-05-08 17:36:00,
2013-05-08 12:41:00,71.7,62.6,30.00,North,352,1.0,2.0,73,0.00,,,0.00,Wunderground v.1.15,2013-05-08 17:41:00,
2013-05-08 12:47:00,72.9,60.0,30.00,NW,323,1.0,3.0,64,0.00,,,0.00,Wunderground v.1.15,2013-05-08 17:47:00,
2013-05-08 12:52:00,72.6,59.7,30.00,West,275,1.0,2.0,64,0.00,,,0.00,Wunderground v.1.15,2013-05-08 17:52:00,
2013-05-08 12:57:00,72.1,58.8,30.00,NNW,338,1.0,3.0,63,0.00,,,0.00,Wunderground v.1.15,2013-05-08 17:57:00,
2013-05-08 13:03:00,73.2,61.2,30.00,West,275,1.0,2.0,66,0.00,,,0.00,Wunderground v.1.15,2013-05-08 18:03:00,
2013-05-08 13:09:00,72.9,59.6,30.00,East,88,1.0,2.0,63,0.00,,,0.00,Wunderground v.1.15,2013-05-08 18:09:00,
2013-05-08 13:14:00,72.5,59.6,30.00,East,101,2.0,2.0,64,0.00,,,0.00,Wunderground v.1.15,2013-05-08 18:14:00,
2013-05-08 13:20:00,72.0,58.3,30.00,West,276,2.0,2.0,62,0.00,,,0.00,Wunderground v.1.15,2013-05-08 18:20:00,
2013-05-08 13:25:00,71.8,59.4,30.00,West,271,2.0,2.0,65,0.00,,,0.00,Wunderground v.1.15,2013-05-08 18:25:00,
2013-05-08 13:30:00,72.0,59.2,30.00,SSE,150,1.0,1.0,64,0.00,,,0.00,Wunderground v.1.15,2013-05-08 18:30:00,
2013-05-08 13:35:00,72.3,61.1,30.00,WSW,254,1.0,2.0,68,0.00,,,0.00,Wunderground v.1.15,2013-05-08 18:35:00,
2013-05-08 13:41:00,73.7,61.2,30.00,SW,226,1.0,2.0,65,0.00,,,0.00,Wunderground v.1.15,2013-05-08 18:41:00,
2013-05-08 13:46:00,73.7,59.4,30.00,SW,235,1.0,2.0,61,0.00,,,0.00,Wunderground v.1.15,2013-05-08 18:46:00,
2013-05-08 13:51:00,73.8,60.9,30.00,SSW,197,0.0,2.0,64,0.00,,,0.00,Wunderground v.1.15,2013-05-08 18:51:00,
2013-05-08 13:57:00,73.7,59.9,30.00,ESE,117,0.0,3.0,62,0.00,,,0.00,Wunderground v.1.15,2013-05-08 18:57:00,
2013-05-08 14:02:00,73.6,58.4,30.00,SW,230,1.0,2.0,59,0.00,,,0.00,Wunderground v.1.15,2013-05-08 19:02:00,
2013-05-08 14:07:00,73.5,58.8,30.00,WSW,249,1.0,2.0,60,0.00,,,0.00,Wunderground v.1.15,2013-05-08 19:07:00,
2013-05-08 14:13:00,73.6,58.4,30.00,North,8,1.0,2.0,59,0.00,,,0.00,Wunderground v.1.15,2013-05-08 19:13:00,
2013-05-08 14:18:00,74.1,57.9,30.00,SW,236,1.0,2.0,57,0.00,,,0.00,Wunderground v.1.15,2013-05-08 19:18:00,
2013-05-08 14:23:00,75.1,58.3,30.00,SW,223,1.0,2.0,56,0.00,,,0.00,Wunderground v.1.15,2013-05-08 19:23:00,
2013-05-08 14:28:00,75.6,59.3,30.00,North,355,1.0,2.0,57,0.00,,,0.00,Wunderground v.1.15,2013-05-08 19:28:00,
2013-05-08 14:34:00,76.0,57.6,29.99,ENE,77,2.0,4.0,53,0.00,,,0.00,Wunderground v.1.15,2013-05-08 19:34:00,
2013-05-08 14:39:00,75.3,60.0,29.99,NE,53,2.0,4.0,59,0.00,,,0.00,Wunderground v.1.15,2013-05-08 19:39:00,
2013-05-08 14:44:00,74.6,57.9,29.99,NE,53,1.0,2.0,56,0.00,,,0.00,Wunderground v.1.15,2013-05-08 19:44:00,
2013-05-08 14:50:00,73.9,58.2,29.99,NE,55,0.0,2.0,58,0.00,,,0.00,Wunderground v.1.15,2013-05-08 19:50:00,
2013-05-08 14:55:00,73.6,59.8,29.99,NE,55,0.0,2.0,62,0.00,,,0.00,Wunderground v.1.15,2013-05-08 19:55:00,
2013-05-08 15:00:00,73.3,59.9,29.99,South,188,0.0,2.0,63,0.00,,,0.00,Wunderground v.1.15,2013-05-08 20:00:00,
2013-05-08 15:06:00,73.2,59.8,29.99,South,178,0.0,2.0,63,0.00,,,0.00,Wunderground v.1.15,2013-05-08 20:06:00,
2013-05-08 15:11:00,73.5,59.7,29.99,WSW,257,0.0,2.0,62,0.00,,,0.00,Wunderground v.1.15,2013-05-08 20:11:00,
2013-05-08 15:16:00,73.7,58.9,29.99,WSW,246,0.0,2.0,60,0.00,,,0.00,Wunderground v.1.15,2013-05-08 20:16:00,
2013-05-08 15:21:00,74.9,61.0,29.98,WNW,297,0.0,2.0,62,0.00,,,0.00,Wunderground v.1.15,2013-05-08 20:21:00,
2013-05-08 15:27:00,75.2,57.9,29.98,NNE,30,0.0,2.0,55,0.00,,,0.00,Wunderground v.1.15,2013-05-08 20:27:00,
2013-05-08 15:32:00,74.5,58.3,29.98,NE,50,1.0,2.0,57,0.00,,,0.00,Wunderground v.1.15,2013-05-08 20:32:00,
2013-05-08 15:37:00,73.9,58.7,29.98,NE,38,1.0,3.0,59,0.00,,,0.00,Wunderground v.1.15,2013-05-08 20:37:00,
2013-05-08 15:42:00,73.7,58.5,29.98,NNE,24,1.0,2.0,59,0.00,,,0.00,Wunderground v.1.15,2013-05-08 20:42:00,
2013-05-08 15:48:00,73.6,61.1,29.99,North,352,0.0,2.0,65,0.00,,,0.00,Wunderground v.1.15,2013-05-08 20:48:00,
2013-05-08 15:53:00,73.3,59.0,29.98,NNW,347,1.0,2.0,61,0.00,,,0.00,Wunderground v.1.15,2013-05-08 20:53:00,
2013-05-08 15:58:00,73.5,61.4,29.98,North,355,1.0,2.0,66,0.00,,,0.00,Wunderground v.1.15,2013-05-08 20:58:00,
2013-05-08 16:04:00,73.6,62.4,29.98,NW,311,1.0,2.0,68,0.00,,,0.00,Wunderground v.1.15,2013-05-08 21:04:00,
2013-05-08 16:09:00,73.5,59.7,29.98,WNW,300,0.0,2.0,62,0.00,,,0.00,Wunderground v.1.15,2013-05-08 21:09:00,
2013-05-08 16:14:00,74.1,60.7,29.98,NNW,330,1.0,2.0,63,0.00,,,0.00,Wunderground v.1.15,2013-05-08 21:14:00,
2013-05-08 16:20:00,75.0,62.0,29.97,NW,309,1.0,1.0,64,0.00,,,0.00,Wunderground v.1.15,2013-05-08 21:20:00,
2013-05-08 16:25:00,76.1,63.5,29.97,WSW,258,1.0,2.0,65,0.00,,,0.00,Wunderground v.1.15,2013-05-08 21:25:00,
2013-05-08 16:30:00,75.2,61.3,29.98,WSW,258,1.0,1.0,62,0.00,,,0.00,Wunderground v.1.15,2013-05-08 21:30:00,
2013-05-08 16:35:00,75.2,60.4,29.97,West,263,1.0,2.0,60,0.00,,,0.00,Wunderground v.1.15,2013-05-08 21:35:00,
2013-05-08 16:41:00,74.8,60.4,29.97,WNW,293,0.0,2.0,61,0.00,,,0.00,Wunderground v.1.15,2013-05-08 21:41:00,
2013-05-08 16:46:00,73.8,60.4,29.97,NNW,347,0.0,2.0,63,0.00,,,0.00,Wunderground v.1.15,2013-05-08 21:46:00,
2013-05-08 16:51:00,73.3,60.4,29.97,North,359,0.0,2.0,64,0.00,,,0.00,Wunderground v.1.15,2013-05-08 21:51:00,
2013-05-08 16:57:00,73.0,59.2,29.97,North,359,0.0,2.0,62,0.00,,,0.00,Wunderground v.1.15,2013-05-08 21:57:00,
2013-05-08 17:02:00,72.9,60.9,29.97,North,358,0.0,2.0,66,0.00,,,0.00,Wunderground v.1.15,2013-05-08 22:02:00,
2013-05-08 17:07:00,72.5,59.6,29.97,North,358,0.0,2.0,64,0.00,,,0.00,Wunderground v.1.15,2013-05-08 22:07:00,
2013-05-08 17:13:00,72.4,59.5,29.97,North,358,0.0,2.0,64,0.00,,,0.00,Wunderground v.1.15,2013-05-08 22:13:00,
2013-05-08 17:18:00,72.2,58.9,29.97,NNE,13,0.0,2.0,63,0.00,,,0.00,Wunderground v.1.15,2013-05-08 22:18:00,
2013-05-08 17:23:00,72.0,59.6,29.97,NNE,13,0.0,2.0,65,0.00,,,0.00,Wunderground v.1.15,2013-05-08 22:23:00,
2013-05-08 17:28:00,71.6,58.3,29.97,NNE,22,0.0,2.0,63,0.00,,,0.00,Wunderground v.1.15,2013-05-08 22:28:00,
2013-05-08 17:34:00,71.4,59.9,29.97,SE,126,1.0,2.0,67,0.00,,,0.00,Wunderground v.1.15,2013-05-08 22:34:00,
2013-05-08 17:39:00,71.2,60.1,29.97,SE,143,1.0,2.0,68,0.00,,,0.00,Wunderground v.1.15,2013-05-08 22:39:00,
2013-05-08 17:44:00,71.0,61.1,29.97,ENE,72,0.0,2.0,71,0.00,,,0.00,Wunderground v.1.15,2013-05-08 22:44:00,
2013-05-08 17:50:00,70.9,59.8,29.97,NE,48,1.0,2.0,68,0.00,,,0.00,Wunderground v.1.15,2013-05-08 22:50:00,
2013-05-08 17:55:00,71.2,60.1,29.97,NNW,342,1.0,2.0,68,0.00,,,0.00,Wunderground v.1.15,2013-05-08 22:55:00,
2013-05-08 18:00:00,71.7,60.2,29.97,North,358,1.0,2.0,67,0.00,,,0.00,Wunderground v.1.15,2013-05-08 23:00:00,
2013-05-08 18:05:00,71.9,61.6,29.97,North,349,1.0,2.0,70,0.00,,,0.00,Wunderground v.1.15,2013-05-08 23:05:00,
2013-05-08 18:11:00,71.9,60.8,29.97,WNW,302,0.0,2.0,68,0.00,,,0.00,Wunderground v.1.15,2013-05-08 23:11:00,
2013-05-08 18:16:00,71.6,60.5,29.97,West,278,1.0,2.0,68,0.00,,,0.00,Wunderground v.1.15,2013-05-08 23:16:00,
2013-05-08 18:21:00,71.2,60.9,29.97,West,278,1.0,2.0,70,0.00,,,0.00,Wunderground v.1.15,2013-05-08 23:21:00,
2013-05-08 18:27:00,70.8,60.1,29.98,North,351,0.0,2.0,69,0.00,,,0.00,Wunderground v.1.15,2013-05-08 23:27:00,
2013-05-08 18:32:00,70.5,59.8,29.98,ENE,60,1.0,2.0,69,0.00,,,0.00,Wunderground v.1.15,2013-05-08 23:32:00,
2013-05-08 18:37:00,70.4,59.7,29.98,NE,50,1.0,2.0,69,0.00,,,0.00,Wunderground v.1.15,2013-05-08 23:37:00,
2013-05-08 18:43:00,70.2,60.0,29.98,ENE,62,1.0,2.0,70,0.00,,,0.00,Wunderground v.1.15,2013-05-08 23:43:00,
2013-05-08 18:49:00,70.0,59.8,29.98,NE,46,1.0,2.0,70,0.00,,,0.00,Wunderground v.1.15,2013-05-08 23:49:00,
2013-05-08 18:54:00,69.7,59.5,29.98,ENE,60,1.0,2.0,70,0.00,,,0.00,Wunderground v.1.15,2013-05-08 23:54:00,
2013-05-08 18:59:00,69.4,60.0,29.98,NE,41,1.0,2.0,72,0.00,,,0.00,Wunderground v.1.15,2013-05-08 23:59:00,
2013-05-08 19:05:00,69.3,60.7,29.98,ENE,64,1.0,2.0,74,0.00,,,0.00,Wunderground v.1.15,2013-05-09 00:05:00,
2013-05-08 19:10:00,68.9,60.6,29.98,ENE,62,1.0,2.0,75,0.00,,,0.00,Wunderground v.1.15,2013-05-09 00:10:00,
2013-05-08 19:15:00,68.7,60.5,29.99,ENE,57,1.0,2.0,75,0.00,,,0.00,Wunderground v.1.15,2013-05-09 00:15:00,
2013-05-08 19:21:00,68.4,60.9,29.99,NE,53,1.0,2.0,77,0.00,,,0.00,Wunderground v.1.15,2013-05-09 00:21:00,
2013-05-08 19:26:00,68.3,60.8,29.99,NE,53,0.0,2.0,77,0.00,,,0.00,Wunderground v.1.15,2013-05-09 00:26:00,
2013-05-08 19:31:00,68.0,60.9,29.99,NE,53,0.0,2.0,78,0.00,,,0.00,Wunderground v.1.15,2013-05-09 00:31:00,
2013-05-08 19:36:00,67.7,60.6,29.99,NE,53,0.0,2.0,78,0.00,,,0.00,Wunderground v.1.15,2013-05-09 00:36:00,
2013-05-08 19:42:00,67.5,60.8,30.00,NE,53,0.0,2.0,79,0.00,,,0.00,Wunderground v.1.15,2013-05-09 00:42:00,
2013-05-08 19:47:00,67.4,60.7,30.00,NE,53,0.0,2.0,79,0.00,,,0.00,Wunderground v.1.15,2013-05-09 00:47:00,
2013-05-08 19:52:00,67.2,60.5,30.00,NE,53,0.0,2.0,79,0.00,,,0.00,Wunderground v.1.15,2013-05-09 00:52:00,
2013-05-08 19:58:00,67.0,60.6,30.00,NE,53,0.0,2.0,80,0.00,,,0.00,Wunderground v.1.15,2013-05-09 00:58:00,
2013-05-08 20:03:00,67.0,60.6,30.00,NE,53,0.0,2.0,80,0.00,,,0.00,Wunderground v.1.15,2013-05-09 01:03:00,
2013-05-08 20:08:00,66.9,60.9,30.00,NE,52,0.0,2.0,81,0.00,,,0.00,Wunderground v.1.15,2013-05-09 01:08:00,
2013-05-08 20:13:00,66.7,60.7,30.01,NE,53,0.0,2.0,81,0.00,,,0.00,Wunderground v.1.15,2013-05-09 01:13:00,
2013-05-08 20:19:00,66.4,60.4,30.01,NE,53,0.0,2.0,81,0.00,,,0.00,Wunderground v.1.15,2013-05-09 01:19:00,
2013-05-08 20:24:00,66.0,60.3,30.01,NE,53,0.0,2.0,82,0.00,,,0.00,Wunderground v.1.15,2013-05-09 01:24:00,
2013-05-08 20:29:00,65.5,60.5,30.01,NNE,12,0.0,2.0,84,0.00,,,0.00,Wunderground v.1.15,2013-05-09 01:29:00,
2013-05-08 20:35:00,64.9,60.3,30.01,NNE,27,1.0,2.0,85,0.00,,,0.00,Wunderground v.1.15,2013-05-09 01:35:00,
2013-05-08 20:40:00,64.7,59.8,30.01,NNE,26,1.0,1.0,84,0.00,,,0.00,Wunderground v.1.15,2013-05-09 01:40:00,
2013-05-08 20:45:00,64.5,59.9,30.01,NNE,22,1.0,2.0,85,0.00,,,0.00,Wunderground v.1.15,2013-05-09 01:45:00,
2013-05-08 20:51:00,64.1,59.5,30.01,NNE,22,0.0,2.0,85,0.00,,,0.00,Wunderground v.1.15,2013-05-09 01:51:00,
2013-05-08 20:56:00,64.1,59.2,30.02,NNE,23,0.0,2.0,84,0.00,,,0.00,Wunderground v.1.15,2013-05-09 01:56:00,
2013-05-08 21:01:00,64.2,59.3,30.02,NNE,23,0.0,2.0,84,0.00,,,0.00,Wunderground v.1.15,2013-05-09 02:01:00,
2013-05-08 21:07:00,64.2,58.9,30.02,NE,51,0.0,2.0,83,0.00,,,0.00,Wunderground v.1.15,2013-05-09 02:07:00,
2013-05-08 21:12:00,63.9,58.6,30.02,South,179,0.0,2.0,83,0.00,,,0.00,Wunderground v.1.15,2013-05-09 02:12:00,
2013-05-08 21:17:00,64.0,59.1,30.03,ESE,117,0.0,2.0,84,0.00,,,0.00,Wunderground v.1.15,2013-05-09 02:17:00,
2013-05-08 21:22:00,63.8,58.9,30.03,ESE,118,0.0,2.0,84,0.00,,,0.00,Wunderground v.1.15,2013-05-09 02:22:00,
2013-05-08 21:28:00,63.7,58.4,30.03,ESE,118,0.0,2.0,83,0.00,,,0.00,Wunderground v.1.15,2013-05-09 02:28:00,
2013-05-08 21:33:00,63.8,58.5,30.03,ESE,117,0.0,2.0,83,0.00,,,0.00,Wunderground v.1.15,2013-05-09 02:33:00,
2013-05-08 21:38:00,63.6,58.3,30.03,ESE,117,0.0,2.0,83,0.00,,,0.00,Wunderground v.1.15,2013-05-09 02:38:00,
2013-05-08 21:44:00,63.4,58.5,30.04,ESE,117,0.0,2.0,84,0.00,,,0.00,Wunderground v.1.15,2013-05-09 02:44:00,
2013-05-08 21:49:00,63.1,59.5,30.04,ESE,117,0.0,2.0,88,0.00,,,0.00,Wunderground v.1.15,2013-05-09 02:49:00,
2013-05-08 21:54:00,62.8,59.2,30.04,ESE,117,0.0,2.0,88,0.00,,,0.00,Wunderground v.1.15,2013-05-09 02:54:00,
2013-05-08 21:59:00,62.5,58.9,30.04,ESE,117,0.0,2.0,88,0.00,,,0.00,Wunderground v.1.15,2013-05-09 02:59:00,
2013-05-08 22:05:00,62.3,58.4,30.04,ESE,117,0.0,2.0,87,0.00,,,0.00,Wunderground v.1.15,2013-05-09 03:05:00,
2013-05-08 22:10:00,62.2,58.3,30.04,ESE,117,0.0,2.0,87,0.00,,,0.00,Wunderground v.1.15,2013-05-09 03:10:00,
2013-05-08 22:15:00,62.3,58.4,30.04,ESE,117,0.0,2.0,87,0.00,,,0.00,Wunderground v.1.15,2013-05-09 03:15:00,
2013-05-08 22:21:00,62.1,58.5,30.04,ESE,117,0.0,2.0,88,0.00,,,0.00,Wunderground v.1.15,2013-05-09 03:21:00,
2013-05-08 22:26:00,61.8,58.5,30.04,ESE,117,0.0,2.0,89,0.00,,,0.00,Wunderground v.1.15,2013-05-09 03:26:00,
2013-05-08 22:31:00,61.4,57.8,30.04,ESE,123,0.0,2.0,88,0.00,,,0.00,Wunderground v.1.15,2013-05-09 03:31:00,
2013-05-08 22:37:00,60.9,57.0,30.04,ESE,123,0.0,2.0,87,0.00,,,0.00,Wunderground v.1.15,2013-05-09 03:37:00,
2013-05-08 22:43:00,60.7,56.8,30.04,ESE,123,0.0,2.0,87,0.00,,,0.00,Wunderground v.1.15,2013-05-09 03:43:00,
2013-05-08 22:48:00,60.6,56.7,30.04,ESE,122,0.0,2.0,87,0.00,,,0.00,Wunderground v.1.15,2013-05-09 03:48:00,
2013-05-08 22:53:00,60.4,56.5,30.04,ESE,123,0.0,2.0,87,0.00,,,0.00,Wunderground v.1.15,2013-05-09 03:53:00,
2013-05-08 22:59:00,60.1,56.2,30.04,ESE,122,0.0,2.0,87,0.00,,,0.00,Wunderground v.1.15,2013-05-09 03:59:00,
2013-05-08 23:01:00,60.1,56.5,30.04,ESE,123,0.0,2.0,88,0.00,,,0.00,Wunderground v.1.15,2013-05-09 04:01:00,
2013-05-08 23:02:00,60.1,56.5,30.04,ESE,122,0.0,2.0,88,0.00,,,0.00,Wunderground v.1.15,2013-05-09 04:02:00,
2013-05-08 23:07:00,59.9,56.6,30.04,ESE,123,0.0,2.0,89,0.00,,,0.00,Wunderground v.1.15,2013-05-09 04:07:00,
2013-05-08 23:09:00,59.7,56.5,30.04,ESE,122,0.0,2.0,89,0.00,,,0.00,Wunderground v.1.15,2013-05-09 04:09:00,
2013-05-08 23:11:00,59.5,56.3,30.04,ESE,123,0.0,2.0,89,0.00,,,0.00,Wunderground v.1.15,2013-05-09 04:11:00,
2013-05-08 23:17:00,59.2,56.3,30.04,ESE,123,0.0,2.0,90,0.00,,,0.00,Wunderground v.1.15,2013-05-09 04:17:00,
2013-05-08 23:22:00,58.9,56.3,30.04,ESE,122,0.0,2.0,91,0.00,,,0.00,Wunderground v.1.15,2013-05-09 04:22:00,
2013-05-08 23:27:00,58.9,56.3,30.04,ESE,123,0.0,2.0,91,0.00,,,0.00,Wunderground v.1.15,2013-05-09 04:27:00,
2013-05-08 23:32:00,58.9,56.3,30.04,ESE,123,0.0,2.0,91,0.00,,,0.00,Wunderground v.1.15,2013-05-09 04:32:00,
2013-05-08 23:38:00,58.7,56.1,30.04,ESE,123,0.0,2.0,91,0.00,,,0.00,Wunderground v.1.15,2013-05-09 04:38:00,
2013-05-08 23:43:00,58.5,56.2,30.04,ESE,123,0.0,2.0,92,0.00,,,0.00,Wunderground v.1.15,2013-05-09 04:43:00,
2013-05-08 23:48:00,58.6,56.3,30.04,ESE,122,0.0,2.0,92,0.00,,,0.00,Wunderground v.1.15,2013-05-09 04:48:00,
2013-05-08 23:54:00,58.6,56.6,30.04,ESE,123,0.0,2.0,93,0.00,,,0.00,Wunderground v.1.15,2013-05-09 04:54:00,
2013-05-08 23:59:00,58.5,56.2,30.04,North,10,0.0,2.0,92,0.00,,,0.00,Wunderground v.1.15,2013-05-09 04:59:00,